211550Z 13010KT 9999 OVC003 13/12 Q0993=

AAA 211540Z 2115/2124 12010KT 9999 -RA OVC010 TEMPO 2115/2120 2000 -DZ BR BKN004 BECMG 2120/2122 18012KT BKN040=

Aktuell METAR/TAF ESNU/UME

Källa: Luftfartsverket (aro.lfv.se)